createdAt,value
2022-08-07T00:00:18.622Z,48.3
2022-08-07T00:01:44.895Z,48.1
2022-08-07T00:02:35.812Z,48.2
2022-08-07T00:03:19.973Z,47.9
2022-08-07T00:04:24.537Z,47.5
2022-08-07T00:05:23.535Z,47.5
2022-08-07T00:06:29.368Z,47.3
2022-08-07T00:07:23.974Z,47.9
2022-08-07T00:08:24.922Z,47.5
2022-08-07T00:09:35.726Z,47
2022-08-07T00:10:29.552Z,46.9
2022-08-07T00:11:29.839Z,46.8
2022-08-07T00:12:28.953Z,47.1
2022-08-07T00:13:30.074Z,47
2022-08-07T00:14:31.712Z,47.1
2022-08-07T00:15:36.253Z,46.9
2022-08-07T00:16:35.114Z,47
2022-08-07T00:17:35.993Z,46.9
2022-08-07T00:18:36.933Z,47
2022-08-07T00:19:59.761Z,47.2
2022-08-07T00:20:38.993Z,47.2
2022-08-07T00:21:55.666Z,47.2
2022-08-07T00:22:42.281Z,47.5
2022-08-07T00:23:41.993Z,47.5
2022-08-07T00:24:42.953Z,47.3
2022-08-07T00:25:45.718Z,47.4
2022-08-07T00:26:49.700Z,47.5
2022-08-07T00:27:52.115Z,47.4
2022-08-07T00:28:55.588Z,47.3
2022-08-07T00:29:47.974Z,47.4
2022-08-07T00:30:49.014Z,47.8
2022-08-07T00:31:51.374Z,47.5
2022-08-07T00:32:50.934Z,47.1
2022-08-07T00:33:51.973Z,47.8
2022-08-07T00:34:52.913Z,47.9
2022-08-07T00:35:54.014Z,47.7
2022-08-07T00:36:55.013Z,47.5
2022-08-07T00:37:55.993Z,47.7
2022-08-07T00:38:57.019Z,47.6
2022-08-07T00:39:58.027Z,47.4
2022-08-07T00:40:58.935Z,47.2
2022-08-07T00:42:01.648Z,47.7
2022-08-07T00:43:01.473Z,47.5
2022-08-07T00:44:03.163Z,47.8
2022-08-07T00:45:06.758Z,47.9
2022-08-07T00:46:06.134Z,47
2022-08-07T00:47:15.739Z,47.6
2022-08-07T00:48:10.759Z,47.8
2022-08-07T00:49:08.934Z,48.1
2022-08-07T00:50:17.549Z,48.4
2022-08-07T00:51:11.033Z,48.2
2022-08-07T00:52:11.973Z,48.2
2022-08-07T00:53:12.973Z,48.3
2022-08-07T00:54:14.014Z,49.1
2022-08-07T00:55:17.363Z,48.7
2022-08-07T00:56:16.076Z,48
2022-08-07T00:57:16.974Z,47.9
2022-08-07T00:58:17.956Z,48
2022-08-07T00:59:19.979Z,48.4
2022-08-07T01:00:20.051Z,47.9
2022-08-07T01:04:21.627Z,48.6
2022-08-07T01:05:18.996Z,48.4
2022-08-07T01:06:17.930Z,48.3
2022-08-07T01:07:18.971Z,49.2
2022-08-07T01:08:20.411Z,50.6
2022-08-07T01:09:35.571Z,51.6
2022-08-07T01:10:22.951Z,52.6
2022-08-07T01:12:05.292Z,52.9
2022-08-07T01:12:28.229Z,53.4
2022-08-07T01:13:25.990Z,53.4
2022-08-07T01:14:28.200Z,53.5
2022-08-07T01:15:35.567Z,53.7
2022-08-07T01:16:30.135Z,53.2
2022-08-07T01:17:30.282Z,52.8
2022-08-07T01:18:31.071Z,52.2
2022-08-07T01:19:32.755Z,52.2
2022-08-07T01:20:34.183Z,52.1
2022-08-07T01:21:36.878Z,51.3
2022-08-07T01:22:36.931Z,51
2022-08-07T01:23:39.518Z,50.7
2022-08-07T01:24:38.950Z,50.6
2022-08-07T01:25:55.946Z,50.4
2022-08-07T01:26:41.153Z,50.7
2022-08-07T01:27:50.925Z,50.7
2022-08-07T01:28:45.798Z,52
2022-08-07T01:29:47.131Z,52.3
2022-08-07T01:30:48.291Z,52.7
2022-08-07T01:31:50.070Z,53.3
2022-08-07T01:32:51.051Z,53.6
2022-08-07T01:33:53.857Z,53.9
2022-08-07T01:34:52.952Z,54.1
2022-08-07T01:36:06.093Z,54.3
2022-08-07T01:36:57.787Z,54.3
2022-08-07T01:37:56.151Z,54.8
2022-08-07T01:38:57.144Z,54.9
2022-08-07T01:39:58.060Z,53.8
2022-08-07T01:40:59.003Z,53.8
2022-08-07T01:42:07.827Z,53.6
2022-08-07T01:43:01.590Z,52.9
2022-08-07T01:44:03.159Z,52.7
2022-08-07T01:45:04.024Z,52.6
2022-08-07T01:46:05.020Z,52.8
2022-08-07T01:47:14.249Z,53.2
2022-08-07T01:48:18.709Z,52.6
2022-08-07T01:49:08.262Z,53.1
2022-08-07T01:50:09.091Z,53.3
2022-08-07T01:51:24.884Z,52.8
2022-08-07T01:52:10.993Z,52.5
2022-08-07T01:53:20.722Z,52.4
2022-08-07T01:54:32.758Z,52.2
2022-08-07T01:55:16.888Z,53
2022-08-07T01:56:15.051Z,52.6
2022-08-07T01:57:20.630Z,51.6
2022-08-07T01:58:27.122Z,51.3
2022-08-07T01:59:19.051Z,51.3
2022-08-07T02:00:20.031Z,51.1
2022-08-07T02:01:25.739Z,50.8
2022-08-07T02:02:33.068Z,51.2
2022-08-07T02:03:26.624Z,51
2022-08-07T02:04:24.136Z,51
2022-08-07T02:05:43.614Z,50.8
2022-08-07T02:06:31.124Z,50.8
2022-08-07T02:07:36.002Z,50.4
2022-08-07T02:08:28.135Z,50.6
2022-08-07T02:09:33.544Z,50.8
2022-08-07T02:10:30.070Z,50.7
2022-08-07T02:12:03.126Z,51
2022-08-07T02:12:32.192Z,50.8
2022-08-07T02:13:56.938Z,50.7
2022-08-07T02:14:35.568Z,50.6
2022-08-07T02:15:36.154Z,50.5
2022-08-07T02:16:37.071Z,50.8
2022-08-07T02:17:38.033Z,51
2022-08-07T02:18:45.466Z,51.2
2022-08-07T02:20:03.688Z,52.2
2022-08-07T02:20:42.051Z,53.2
2022-08-07T02:21:54.936Z,53.9
2022-08-07T02:22:44.072Z,53.9
2022-08-07T02:23:45.072Z,54.2
2022-08-07T02:24:46.072Z,54.2
2022-08-07T02:26:11.126Z,54.5
2022-08-07T02:26:47.972Z,54.7
2022-08-07T02:27:51.373Z,54.7
2022-08-07T02:28:50.074Z,54.6
2022-08-07T02:29:54.449Z,54.6
2022-08-07T02:30:52.092Z,54.6
2022-08-07T02:31:54.594Z,55
2022-08-07T02:33:00.355Z,55.3
2022-08-07T02:33:57.448Z,55.6
2022-08-07T02:34:56.152Z,55.9
2022-08-07T02:36:27.374Z,56.1
2022-08-07T02:36:58.091Z,56
2022-08-07T02:37:59.053Z,56.4
2022-08-07T02:39:00.207Z,56.5
2022-08-07T02:40:02.677Z,56.4
2022-08-07T02:41:03.924Z,55.1
2022-08-07T02:42:03.011Z,55
2022-08-07T02:43:07.699Z,55.9
2022-08-07T02:44:05.161Z,56.3
2022-08-07T02:45:07.361Z,56.5
2022-08-07T02:46:07.051Z,56.5
2022-08-07T02:47:09.152Z,56.7
2022-08-07T02:48:10.445Z,56.8
2022-08-07T02:49:11.033Z,57
2022-08-07T02:50:18.388Z,57.1
2022-08-07T02:51:29.330Z,57.4
2022-08-07T02:52:21.243Z,57.7
2022-08-07T02:53:22.112Z,57.8
2022-08-07T02:54:25.232Z,57.7
2022-08-07T02:55:27.472Z,57.8
2022-08-07T02:56:25.092Z,58.3
2022-08-07T02:57:28.766Z,58.3
2022-08-07T02:58:27.480Z,58.5
2022-08-07T02:59:28.071Z,58.6
2022-08-07T03:00:30.179Z,58.9
2022-08-07T03:01:36.167Z,59
2022-08-07T03:02:31.091Z,59.2
2022-08-07T03:03:42.380Z,59.3
2022-08-07T03:04:33.069Z,59.2
2022-08-07T03:05:35.820Z,59.4
2022-08-07T03:06:35.111Z,59.5
2022-08-07T03:07:43.412Z,59.5
2022-08-07T03:08:37.112Z,59.7
2022-08-07T03:09:42.612Z,59.7
2022-08-07T03:10:40.837Z,59.6
2022-08-07T03:11:52.031Z,59.8
2022-08-07T03:12:41.051Z,59.8
2022-08-07T03:13:49.563Z,59.9
2022-08-07T03:14:43.232Z,59.9
2022-08-07T03:15:48.095Z,59.8
2022-08-07T03:16:45.312Z,59.7
2022-08-07T03:17:52.771Z,59.5
2022-08-07T03:18:49.152Z,59.3
2022-08-07T03:19:52.159Z,59
2022-08-07T03:20:51.073Z,59.3
2022-08-07T03:21:52.231Z,58.9
2022-08-07T03:22:53.091Z,59.4
2022-08-07T03:24:19.190Z,59.8
2022-08-07T03:24:55.153Z,59.8
2022-08-07T03:25:58.460Z,59.7
2022-08-07T03:26:58.027Z,59.6
2022-08-07T03:27:59.804Z,59.7
2022-08-07T03:28:59.133Z,59.6
2022-08-07T03:30:00.335Z,59.7
2022-08-07T03:31:02.045Z,59.6
2022-08-07T03:32:03.145Z,59.6
2022-08-07T03:33:04.232Z,59.7
2022-08-07T03:34:06.040Z,59.7
2022-08-07T03:35:17.317Z,59.8
2022-08-07T03:36:09.132Z,59.9
2022-08-07T03:37:12.025Z,60
2022-08-07T03:38:11.121Z,60.1
2022-08-07T03:39:12.126Z,60.1
2022-08-07T03:40:16.256Z,60.1
2022-08-07T03:41:14.134Z,60.3
2022-08-07T03:42:15.052Z,60.4
2022-08-07T03:43:16.152Z,60.3
2022-08-07T03:44:17.113Z,60.4
2022-08-07T03:45:20.899Z,60.6
2022-08-07T03:46:19.091Z,60.8
2022-08-07T03:47:20.112Z,61
2022-08-07T03:48:21.091Z,60.8
2022-08-07T03:49:22.093Z,60.9
2022-08-07T03:50:23.383Z,61
2022-08-07T03:51:24.151Z,61.1
2022-08-07T03:52:26.278Z,60.9
2022-08-07T03:53:30.396Z,60.8
2022-08-07T03:54:33.536Z,60.6
2022-08-07T03:55:42.818Z,60.4
2022-08-07T03:56:32.953Z,60.2
2022-08-07T03:58:32.822Z,60
2022-08-07T03:58:35.782Z,60
2022-08-07T03:59:32.152Z,59.7
2022-08-07T04:00:33.496Z,59.5
2022-08-07T04:01:34.204Z,59.5
2022-08-07T04:02:35.132Z,59.1
2022-08-07T04:03:38.793Z,59.7
2022-08-07T04:04:38.254Z,59.9
2022-08-07T04:05:40.697Z,59.8
2022-08-07T04:06:41.118Z,59.5
2022-08-07T04:07:42.887Z,59.5
2022-08-07T04:08:43.132Z,59.6
2022-08-07T04:09:45.008Z,59
2022-08-07T04:10:53.673Z,58.1
2022-08-07T04:12:21.679Z,58.2
2022-08-07T04:12:49.433Z,58.6
2022-08-07T04:14:09.861Z,57.7
2022-08-07T04:14:52.052Z,57.1
2022-08-07T04:15:53.014Z,56.9
2022-08-07T04:16:58.088Z,56.2
2022-08-07T04:18:31.519Z,56.3
2022-08-07T04:18:59.949Z,56
2022-08-07T04:19:57.112Z,56.1
2022-08-07T04:20:58.100Z,56.1
2022-08-07T04:22:05.522Z,55.2
2022-08-07T04:23:01.200Z,54.2
2022-08-07T04:24:02.121Z,53.7
2022-08-07T04:25:03.112Z,53.4
2022-08-07T04:26:04.151Z,53.3
2022-08-07T04:27:05.126Z,53.4
2022-08-07T04:28:06.152Z,53.4
2022-08-07T04:29:07.112Z,53.3
2022-08-07T04:30:13.548Z,53.2
2022-08-07T04:31:09.132Z,53.3
2022-08-07T04:32:10.828Z,53.7
2022-08-07T04:33:11.433Z,53.8
2022-08-07T04:34:16.355Z,53.7
2022-08-07T04:35:13.113Z,53.5
2022-08-07T04:36:14.241Z,53.9
2022-08-07T04:37:15.359Z,53.9
2022-08-07T04:38:16.232Z,54
2022-08-07T04:39:17.575Z,54.2
2022-08-07T04:40:18.273Z,54.5
2022-08-07T04:41:20.172Z,54.5
2022-08-07T04:42:21.132Z,54.2
2022-08-07T04:43:22.152Z,54.1
2022-08-07T04:44:23.115Z,54
2022-08-07T04:45:44.597Z,53.3
2022-08-07T04:46:25.903Z,52.5
2022-08-07T04:47:56.839Z,52.3
2022-08-07T04:48:27.112Z,52.1
2022-08-07T04:49:28.113Z,52.1
2022-08-07T04:50:29.253Z,52.4
2022-08-07T04:51:32.053Z,51.9
2022-08-07T04:52:31.152Z,51.1
2022-08-07T04:53:40.366Z,50.5
2022-08-07T04:54:33.378Z,50.3
2022-08-07T04:58:08.192Z,50.7
2022-08-07T04:58:08.967Z,51.4
2022-08-07T04:58:18.091Z,51.4
2022-08-07T04:59:09.094Z,51.3
2022-08-07T05:00:08.389Z,50.7
2022-08-07T05:00:41.367Z,49.7
2022-08-07T05:01:43.331Z,49.4
2022-08-07T05:02:45.252Z,49.4
2022-08-07T05:04:00.732Z,49.9
2022-08-07T05:04:50.197Z,49.6
2022-08-07T05:05:52.249Z,50.1
2022-08-07T05:06:51.369Z,49.8
2022-08-07T05:07:51.647Z,49.6
2022-08-07T05:09:00.397Z,49.8
2022-08-07T05:09:53.269Z,49.6
2022-08-07T05:10:58.315Z,49.7
2022-08-07T05:11:57.895Z,49.7
2022-08-07T05:13:00.028Z,49.6
2022-08-07T05:14:45.011Z,49.9
2022-08-07T05:15:04.055Z,49.8
2022-08-07T05:15:59.300Z,49.3
2022-08-07T05:17:01.332Z,49.6
2022-08-07T05:18:06.310Z,49.6
2022-08-07T05:19:05.152Z,49.3
2022-08-07T05:20:09.553Z,49.1
2022-08-07T05:21:07.272Z,48.7
2022-08-07T05:22:08.133Z,48.7
2022-08-07T05:23:15.382Z,48.9
2022-08-07T05:24:10.232Z,48.7
2022-08-07T05:25:11.653Z,48.3
2022-08-07T05:26:18.421Z,48.1
2022-08-07T05:27:14.440Z,48.2
2022-08-07T05:28:17.059Z,48.3
2022-08-07T05:29:15.154Z,47.3
2022-08-07T05:30:16.393Z,47.1
2022-08-07T05:31:18.251Z,46.7
2022-08-07T05:32:19.413Z,47.3
2022-08-07T05:33:21.597Z,47.8
2022-08-07T05:34:26.261Z,47.6
2022-08-07T05:35:33.281Z,47.8
2022-08-07T05:36:30.242Z,48.6
2022-08-07T05:37:25.618Z,48
2022-08-07T05:38:58.676Z,47.2
2022-08-07T05:40:06.101Z,46.8
2022-08-07T05:40:28.761Z,46.7
2022-08-07T05:42:00.857Z,46.4
2022-08-07T05:42:33.472Z,45.3
2022-08-07T05:43:43.332Z,46.2
2022-08-07T05:44:32.191Z,45.7
2022-08-07T05:45:46.397Z,45.8
2022-08-07T05:46:35.253Z,46.2
2022-08-07T05:47:37.977Z,46.4
2022-08-07T05:48:37.194Z,47.4
2022-08-07T05:49:40.714Z,46.9
2022-08-07T05:50:39.331Z,47
2022-08-07T05:51:40.684Z,46.9
2022-08-07T05:52:41.231Z,46.8
2022-08-07T05:54:09.770Z,46.4
2022-08-07T05:54:53.653Z,46
2022-08-07T05:56:01.788Z,46.1
2022-08-07T05:56:46.193Z,46.2
2022-08-07T05:57:47.286Z,47.4
2022-08-07T05:58:49.133Z,46.9
2022-08-07T05:59:56.246Z,45.7
2022-08-07T06:00:50.871Z,46.4
2022-08-07T06:01:51.307Z,46.1
2022-08-07T06:02:52.271Z,45.5
2022-08-07T06:03:56.968Z,45.4
2022-08-07T06:04:54.212Z,44.8
2022-08-07T06:05:56.473Z,44.3
2022-08-07T06:06:56.363Z,43.7
2022-08-07T06:08:05.556Z,43.6
2022-08-07T06:08:58.290Z,44.4
2022-08-07T06:10:04.970Z,44.2
2022-08-07T06:11:00.272Z,43.7
2022-08-07T06:12:01.155Z,43.5
2022-08-07T06:13:02.400Z,42.9
2022-08-07T06:14:11.197Z,42.6
2022-08-07T06:15:05.979Z,42.4
2022-08-07T06:16:07.213Z,42.5
2022-08-07T06:17:08.173Z,42.7
2022-08-07T06:18:09.117Z,43.6
2022-08-07T06:19:17.743Z,43.2
2022-08-07T06:20:12.502Z,43.3
2022-08-07T06:22:12.027Z,42.8
2022-08-07T06:22:23.208Z,42.3
2022-08-07T06:23:25.288Z,42.6
2022-08-07T06:24:39.011Z,43.4
2022-08-07T06:25:20.193Z,43.3
2022-08-07T06:26:21.165Z,43.4
2022-08-07T06:27:22.880Z,43.1
2022-08-07T06:28:27.257Z,42.5
2022-08-07T06:29:24.212Z,42
2022-08-07T06:30:32.371Z,41.5
2022-08-07T06:31:38.771Z,40.5
2022-08-07T06:32:29.342Z,39.7
2022-08-07T06:33:29.484Z,40.7
2022-08-07T06:34:30.579Z,41.1
2022-08-07T06:35:39.246Z,41.6
2022-08-07T06:36:35.081Z,40.7
2022-08-07T06:37:43.323Z,40.9
2022-08-07T06:38:35.393Z,41
2022-08-07T06:40:12.697Z,40.4
2022-08-07T06:40:38.242Z,40.1
2022-08-07T06:42:01.428Z,40.6
2022-08-07T06:42:40.176Z,40.8
2022-08-07T06:43:46.044Z,40.7
2022-08-07T06:44:43.233Z,40.9
2022-08-07T06:45:44.768Z,40.8
2022-08-07T06:46:53.396Z,41.1
2022-08-07T06:47:48.488Z,40.4
2022-08-07T06:48:47.222Z,39.6
2022-08-07T06:49:51.417Z,39.5
2022-08-07T06:50:49.393Z,40.4
2022-08-07T06:51:51.192Z,40.1
2022-08-07T06:52:52.853Z,40.4
2022-08-07T06:54:12.261Z,40.9
2022-08-07T06:55:30.982Z,41
2022-08-07T06:56:00.224Z,40.8
2022-08-07T06:56:58.239Z,40.2
2022-08-07T06:57:59.666Z,40.8
2022-08-07T07:00:10.907Z,40.3
2022-08-07T07:00:10.963Z,39.7
2022-08-07T07:01:03.019Z,39.7
2022-08-07T07:02:04.378Z,39.7
2022-08-07T07:03:08.999Z,39.7
2022-08-07T07:04:28.771Z,39.3
2022-08-07T07:05:07.154Z,39.2
2022-08-07T07:06:10.941Z,39.3
2022-08-07T07:07:10.598Z,39.3
2022-08-07T07:08:12.382Z,39.8
2022-08-07T07:09:11.183Z,39.9
2022-08-07T07:10:12.190Z,39.8
2022-08-07T07:12:06.686Z,39.5
2022-08-07T07:12:19.773Z,38.5
2022-08-07T07:13:15.354Z,38
2022-08-07T07:14:17.432Z,38.7
2022-08-07T07:15:23.689Z,38.4
2022-08-07T07:16:21.157Z,38.2
2022-08-07T07:17:22.194Z,39.4
2022-08-07T07:18:33.153Z,40.1
2022-08-07T07:19:54.994Z,40.6
2022-08-07T07:20:25.173Z,40.8
2022-08-07T07:21:27.141Z,40.9
2022-08-07T07:22:34.254Z,41.4
2022-08-07T07:24:06.998Z,41.6
2022-08-07T07:24:29.195Z,41.4
2022-08-07T07:26:31.768Z,41.7
2022-08-07T07:26:36.773Z,41.8
2022-08-07T07:27:35.422Z,41.6
2022-08-07T07:28:42.847Z,41.1
2022-08-07T07:29:40.860Z,41.8
2022-08-07T07:30:38.255Z,42.2
2022-08-07T07:31:39.726Z,42.4
2022-08-07T07:32:40.133Z,42.2
2022-08-07T07:33:41.177Z,42
2022-08-07T07:34:42.174Z,41.7
2022-08-07T07:35:44.180Z,40.9
2022-08-07T07:36:47.737Z,39.8
2022-08-07T07:37:49.872Z,40.1
2022-08-07T07:38:48.474Z,40.2
2022-08-07T07:39:52.647Z,40.8
2022-08-07T07:40:52.222Z,41.6
2022-08-07T07:42:08.986Z,41.8
2022-08-07T07:42:55.445Z,42.3
2022-08-07T07:44:15.083Z,42.8
2022-08-07T07:44:56.194Z,43
2022-08-07T07:46:36.163Z,42.8
2022-08-07T07:47:04.505Z,42.8
2022-08-07T07:47:59.195Z,42.1
2022-08-07T07:49:09.041Z,41.5
2022-08-07T07:50:32.168Z,39.8
2022-08-07T07:51:02.352Z,38.9
2022-08-07T07:52:03.448Z,37.3
2022-08-07T07:53:04.249Z,37.3
2022-08-07T07:54:05.272Z,37.1
2022-08-07T07:55:06.231Z,37.1
2022-08-07T07:56:07.231Z,37.4
2022-08-07T07:57:08.291Z,37
2022-08-07T07:58:09.232Z,36.5
2022-08-07T07:59:10.200Z,36.8
2022-08-07T08:00:11.212Z,35.5
2022-08-07T08:02:01.188Z,35.2
2022-08-07T08:02:22.414Z,35.4
2022-08-07T08:03:16.290Z,35.1
2022-08-07T08:04:16.320Z,34.7
2022-08-07T08:05:17.171Z,34.8
2022-08-07T08:06:18.212Z,34.1
2022-08-07T08:07:20.092Z,34.6
2022-08-07T08:08:34.128Z,34.7
2022-08-07T08:09:22.694Z,35.4
2022-08-07T08:10:35.475Z,34.3
2022-08-07T08:11:47.432Z,33.4
2022-08-07T08:12:51.467Z,33.8
2022-08-07T08:13:33.347Z,33.3
2022-08-07T08:14:28.171Z,33.6
2022-08-07T08:15:29.411Z,33
2022-08-07T08:16:31.359Z,32.2
2022-08-07T08:17:56.975Z,32.1
2022-08-07T08:18:33.240Z,32.5
2022-08-07T08:20:16.719Z,33.8
2022-08-07T08:20:36.523Z,32.9
2022-08-07T08:21:55.195Z,33.1
2022-08-07T08:22:54.242Z,33.3
2022-08-07T08:23:39.212Z,32.6
2022-08-07T08:24:45.287Z,33
2022-08-07T08:25:42.123Z,33.1
2022-08-07T08:26:42.212Z,33.6
2022-08-07T08:27:43.932Z,32.8
2022-08-07T08:28:44.988Z,32.4
2022-08-07T08:29:54.335Z,33.1
2022-08-07T08:30:50.935Z,33.5
2022-08-07T08:31:58.554Z,32.2
2022-08-07T08:32:49.946Z,32.3
2022-08-07T08:33:55.640Z,32.8
2022-08-07T08:34:52.333Z,31.3
2022-08-07T08:35:53.451Z,30.7
2022-08-07T08:36:56.319Z,31
2022-08-07T08:38:00.013Z,32
2022-08-07T08:38:57.211Z,32.9
2022-08-07T08:39:59.129Z,33
2022-08-07T08:40:59.359Z,31.7
2022-08-07T08:42:00.272Z,31.1
2022-08-07T08:43:01.271Z,30.8
2022-08-07T08:44:02.188Z,30.5
2022-08-07T08:45:04.381Z,30.6
2022-08-07T08:46:04.511Z,31.3
2022-08-07T08:47:06.372Z,32.2
2022-08-07T08:48:07.331Z,31.9
2022-08-07T08:49:08.211Z,31.2
2022-08-07T08:50:09.251Z,30.5
2022-08-07T08:51:14.397Z,30.4
2022-08-07T08:52:13.474Z,31
2022-08-07T08:53:12.203Z,30.5
2022-08-07T08:54:13.219Z,30.1
2022-08-07T08:55:20.892Z,29.9
2022-08-07T08:56:16.961Z,29.7
2022-08-07T08:57:17.333Z,29.4
2022-08-07T08:58:20.489Z,29.4
2022-08-07T08:59:19.377Z,29.2
2022-08-07T09:00:20.513Z,29.3
2022-08-07T09:01:22.364Z,29.9
2022-08-07T09:02:34.945Z,29.6
2022-08-07T09:03:47.278Z,29.6
2022-08-07T09:04:25.831Z,29.6
2022-08-07T09:05:32.166Z,28.8
2022-08-07T09:06:27.535Z,28.7
2022-08-07T09:07:29.711Z,28.9
2022-08-07T09:08:31.572Z,28.8
2022-08-07T09:09:36.474Z,28.8
2022-08-07T09:10:35.471Z,30.2
2022-08-07T09:11:43.835Z,30.1
2022-08-07T09:12:39.253Z,29.3
2022-08-07T09:13:40.411Z,29.1
2022-08-07T09:14:41.177Z,28.4
2022-08-07T09:16:21.352Z,28.7
2022-08-07T09:16:43.293Z,28.7
2022-08-07T09:17:58.734Z,28.6
2022-08-07T09:18:47.249Z,28.9
2022-08-07T09:19:52.483Z,28.9
2022-08-07T09:20:51.930Z,28.7
2022-08-07T09:21:58.366Z,28.6
2022-08-07T09:24:29.530Z,28.3
2022-08-07T09:24:29.709Z,28.9
2022-08-07T09:24:59.510Z,29.2
2022-08-07T09:25:58.329Z,28.6
2022-08-07T09:27:02.098Z,29.1
2022-08-07T09:28:01.858Z,28.2
2022-08-07T09:29:24.572Z,27.7
2022-08-07T09:30:08.165Z,27.6
2022-08-07T09:31:03.335Z,27.6
2022-08-07T09:32:04.486Z,28
2022-08-07T09:33:16.372Z,27.8
2022-08-07T09:34:07.288Z,27.7
2022-08-07T09:36:01.822Z,27.1
2022-08-07T09:36:09.522Z,26.7
2022-08-07T09:37:10.331Z,26.5
2022-08-07T09:38:11.334Z,27.2
2022-08-07T09:39:18.111Z,27.9
2022-08-07T09:40:14.464Z,28.3
2022-08-07T09:41:16.437Z,27.6
2022-08-07T09:42:22.857Z,28.1
2022-08-07T09:43:21.051Z,28.5
2022-08-07T09:44:30.144Z,28
2022-08-07T09:46:28.814Z,26.3
2022-08-07T09:47:20.151Z,26.8
2022-08-07T09:47:52.893Z,26
2022-08-07T09:48:28.775Z,26.3
2022-08-07T09:50:00.267Z,26.6
2022-08-07T09:50:30.593Z,26.5
2022-08-07T09:52:09.528Z,26.9
2022-08-07T09:52:35.227Z,26.3
2022-08-07T09:53:40.436Z,26.8
2022-08-07T09:54:38.252Z,26.9
2022-08-07T09:56:03.034Z,27
2022-08-07T09:56:41.890Z,26.9
2022-08-07T09:57:46.351Z,25.5
2022-08-07T09:58:42.638Z,26.4
2022-08-07T09:59:46.639Z,26.9
2022-08-07T10:00:45.231Z,26.1
2022-08-07T10:01:50.886Z,26.1
2022-08-07T10:02:53.722Z,27
2022-08-07T10:04:04.536Z,26.2
2022-08-07T10:04:53.242Z,26.4
2022-08-07T10:05:59.955Z,26
2022-08-07T10:06:54.130Z,25.8
2022-08-07T10:07:55.118Z,26.2
2022-08-07T10:08:54.329Z,26
2022-08-07T10:09:59.530Z,26.6
2022-08-07T10:11:17.362Z,26.9
2022-08-07T10:12:00.783Z,27.7
2022-08-07T10:12:59.414Z,27.9
2022-08-07T10:14:02.251Z,27.5
2022-08-07T10:15:01.404Z,26.9
2022-08-07T10:16:02.432Z,27.2
2022-08-07T10:17:03.314Z,27.2
2022-08-07T10:18:04.486Z,26.8
2022-08-07T10:19:09.605Z,26.8
2022-08-07T10:20:12.869Z,27.2
2022-08-07T10:21:20.194Z,27.9
2022-08-07T10:22:12.458Z,27.6
2022-08-07T10:23:12.336Z,27.3
2022-08-07T10:24:16.015Z,27.4
2022-08-07T10:25:14.393Z,27.2
2022-08-07T10:26:15.360Z,27.6
2022-08-07T10:27:16.351Z,27.4
2022-08-07T10:28:17.396Z,27.2
2022-08-07T10:29:18.332Z,26.9
2022-08-07T10:30:19.452Z,26.6
2022-08-07T10:31:20.493Z,27.2
2022-08-07T10:32:37.189Z,27.1
2022-08-07T10:33:23.575Z,27.2
2022-08-07T10:34:27.156Z,27.4
2022-08-07T10:35:25.449Z,27.4
2022-08-07T10:36:29.536Z,27.9
2022-08-07T10:37:48.508Z,27.7
2022-08-07T10:38:35.597Z,27.3
2022-08-07T10:39:41.106Z,26.8
2022-08-07T10:40:33.455Z,26.9
2022-08-07T10:41:46.194Z,26.9
2022-08-07T10:42:36.432Z,26.9
2022-08-07T10:43:36.446Z,27.1
2022-08-07T10:44:39.106Z,27
2022-08-07T10:45:45.507Z,26.7
2022-08-07T10:46:40.461Z,26.7
2022-08-07T10:47:51.485Z,26.5
2022-08-07T10:48:44.038Z,26.7
2022-08-07T10:49:45.573Z,26.8
2022-08-07T10:50:50.068Z,26.7
2022-08-07T10:51:57.897Z,26.7
2022-08-07T10:52:48.600Z,25.6
2022-08-07T10:53:49.453Z,25.1
2022-08-07T10:54:53.571Z,25.7
2022-08-07T10:55:53.611Z,26
2022-08-07T10:56:54.407Z,24.7
2022-08-07T10:57:56.235Z,24.3
2022-08-07T10:58:59.490Z,24.9
2022-08-07T10:59:57.480Z,25.8
2022-08-07T11:00:59.465Z,26.2
2022-08-07T11:02:04.659Z,25.8
2022-08-07T11:03:01.369Z,25.2
2022-08-07T11:04:16.910Z,25.4
2022-08-07T11:05:08.662Z,25.9
2022-08-07T11:06:04.837Z,27.5
2022-08-07T11:07:05.473Z,27.2
2022-08-07T11:08:07.711Z,26.8
2022-08-07T11:09:11.028Z,26.2
2022-08-07T11:10:11.496Z,26.3
2022-08-07T11:11:12.241Z,26.2
2022-08-07T11:12:13.328Z,26.2
2022-08-07T11:13:16.744Z,26.3
2022-08-07T11:14:43.148Z,26.3
2022-08-07T11:15:17.868Z,26.8
2022-08-07T11:16:19.713Z,26.8
2022-08-07T11:17:23.046Z,26.8
2022-08-07T11:18:21.454Z,26.7
2022-08-07T11:19:27.159Z,26.7
2022-08-07T11:20:24.457Z,26
2022-08-07T11:21:24.373Z,26.5
2022-08-07T11:22:27.289Z,24.8
2022-08-07T11:23:30.471Z,24.9
2022-08-07T11:24:28.571Z,25
2022-08-07T11:25:30.575Z,25.4
2022-08-07T11:26:32.551Z,25.5
2022-08-07T11:28:02.133Z,25.9
2022-08-07T11:28:36.509Z,26
2022-08-07T11:29:41.584Z,25.2
2022-08-07T11:30:42.101Z,24.8
2022-08-07T11:31:41.333Z,23.3
2022-08-07T11:32:42.392Z,23.2
2022-08-07T11:33:54.554Z,23.6
2022-08-07T11:34:44.392Z,23.7
2022-08-07T11:35:59.392Z,24
2022-08-07T11:36:46.511Z,24.7
2022-08-07T11:37:57.723Z,25
2022-08-07T11:38:50.456Z,24.7
2022-08-07T11:40:00.870Z,24.7
2022-08-07T11:40:53.391Z,25.4
2022-08-07T11:42:00.549Z,25.9
2022-08-07T11:42:55.433Z,26.3
2022-08-07T11:44:11.530Z,26.5
2022-08-07T11:44:58.133Z,26.9
2022-08-07T11:45:59.631Z,27.2
2022-08-07T11:47:01.420Z,27.6
2022-08-07T11:48:05.032Z,27.4
2022-08-07T11:49:27.505Z,27.1
2022-08-07T11:50:30.936Z,26.2
2022-08-07T11:51:09.001Z,25.8
2022-08-07T11:52:07.601Z,25.5
2022-08-07T11:53:08.413Z,25.2
2022-08-07T11:54:10.095Z,25.6
2022-08-07T11:55:12.947Z,25.6
2022-08-07T11:56:26.304Z,25.1
2022-08-07T11:57:12.882Z,25.3
2022-08-07T11:58:16.388Z,25.2
2022-08-07T12:00:07.716Z,24.9
2022-08-07T12:00:18.572Z,24.6
2022-08-07T12:01:19.912Z,25.1
2022-08-07T12:02:20.813Z,25.1
2022-08-07T12:03:42.513Z,24.1
2022-08-07T12:04:22.481Z,23.6
2022-08-07T12:05:28.378Z,24
2022-08-07T12:06:36.629Z,24.4
2022-08-07T12:07:27.378Z,25.1
2022-08-07T12:08:31.623Z,24.8
2022-08-07T12:09:27.596Z,25.2
2022-08-07T12:10:29.630Z,25.7
2022-08-07T12:11:32.327Z,25.5
2022-08-07T12:12:32.374Z,26.2
2022-08-07T12:13:35.247Z,26.3
2022-08-07T12:14:34.432Z,26.1
2022-08-07T12:15:46.369Z,26.8
2022-08-07T12:16:37.506Z,27
2022-08-07T12:17:38.837Z,27.3
2022-08-07T12:18:45.081Z,27.2
2022-08-07T12:19:57.003Z,26.4
2022-08-07T12:20:41.642Z,25.9
2022-08-07T12:21:55.230Z,26.4
2022-08-07T12:22:47.403Z,26.2
2022-08-07T12:24:05.226Z,25.6
2022-08-07T12:24:52.390Z,26.3
2022-08-07T12:26:00.612Z,25.5
2022-08-07T12:26:50.538Z,25.3
2022-08-07T12:28:04.130Z,24.5
2022-08-07T12:28:54.016Z,24.8
2022-08-07T12:29:54.471Z,25.3
2022-08-07T12:30:55.672Z,24.7
2022-08-07T12:32:02.362Z,25.1
2022-08-07T12:32:59.540Z,24.2
2022-08-07T12:34:01.616Z,23.9
2022-08-07T12:35:01.492Z,23.7
2022-08-07T12:36:02.578Z,24.8
2022-08-07T12:37:08.414Z,24.8
2022-08-07T12:38:08.833Z,24.4
2022-08-07T12:39:09.313Z,24.8
2022-08-07T12:40:14.882Z,25.1
2022-08-07T12:41:09.952Z,24.6
2022-08-07T12:42:12.171Z,24.9
2022-08-07T12:43:12.443Z,25.8
2022-08-07T12:44:17.227Z,26.2
2022-08-07T12:45:14.462Z,26.6
2022-08-07T12:46:15.762Z,26.8
2022-08-07T12:47:21.304Z,25.9
2022-08-07T12:48:27.620Z,25.6
2022-08-07T12:49:25.963Z,25.6
2022-08-07T12:50:34.689Z,25.5
2022-08-07T12:51:20.472Z,24.8
2022-08-07T12:52:21.556Z,25
2022-08-07T12:53:23.452Z,24.5
2022-08-07T12:54:37.642Z,24.3
2022-08-07T12:55:40.870Z,24.2
2022-08-07T12:56:27.607Z,24.2
2022-08-07T12:57:29.963Z,23.8
2022-08-07T12:58:35.382Z,23.8
2022-08-07T12:59:37.139Z,23.6
2022-08-07T13:00:35.885Z,23.7
2022-08-07T13:01:35.661Z,23.6
2022-08-07T13:02:47.114Z,24.2
2022-08-07T13:03:56.464Z,24.9
2022-08-07T13:04:49.277Z,25.4
2022-08-07T13:06:02.276Z,25.9
2022-08-07T13:06:54.547Z,26.2
2022-08-07T13:08:13.153Z,26.4
2022-08-07T13:08:55.496Z,26.8
2022-08-07T13:10:11.113Z,27
2022-08-07T13:10:57.493Z,26.7
2022-08-07T13:12:01.044Z,26.8
2022-08-07T13:12:59.440Z,26.7
2022-08-07T13:14:00.513Z,26.9
2022-08-07T13:15:01.381Z,26.9
2022-08-07T13:16:02.434Z,25.8
2022-08-07T13:17:03.585Z,24.8
2022-08-07T13:18:05.618Z,24.8
2022-08-07T13:19:11.582Z,25
2022-08-07T13:20:08.512Z,25.2
2022-08-07T13:21:09.612Z,25.5
2022-08-07T13:22:12.835Z,25.2
2022-08-07T13:24:00.301Z,25.6
2022-08-07T13:24:15.646Z,25.8
2022-08-07T13:25:24.432Z,24.9
2022-08-07T13:26:18.506Z,24.7
2022-08-07T13:27:20.444Z,24.6
2022-08-07T13:28:24.088Z,25
2022-08-07T13:29:21.568Z,24.8
2022-08-07T13:30:40.797Z,23.9
2022-08-07T13:31:24.407Z,23.2
2022-08-07T13:32:32.154Z,22.8
2022-08-07T13:34:29.758Z,23.2
2022-08-07T13:34:32.202Z,23.8
2022-08-07T13:36:00.147Z,23.2
2022-08-07T13:36:29.414Z,22.9
2022-08-07T13:37:30.472Z,22.2
2022-08-07T13:38:31.618Z,22.5
2022-08-07T13:39:49.606Z,23.4
2022-08-07T13:40:42.076Z,23.1
2022-08-07T13:41:35.533Z,23.2